Impacts METAR Board
IDs:

KSTL - St Louis/Lambert Int, MO, US

Updated at: 0400 UTC 22 Apr 2018
Potential Impact None Slight Moderate High
Time 21/16Z 21/17Z 21/18Z 21/19Z 21/20Z 21/21Z 21/22Z 21/23Z 22/00Z 22/01Z 22/02Z 22/03Z 22/04Z
Temp59 61 62 65 66 65 65 65 63 62 60 60 59
Dewpt30 31 31 31 31 31 31 32 32 33 34 33 32
Altim30.34 30.31 30.28 30.24 30.20 30.19 30.20 30.20 30.21 30.20 30.21 30.21 30.20
VIS10 10 10 10 10 10 10 10 10 10 10 10 10
CIG210 250 250 180 160 150 150 180 180 200 150 120 130
CoverOVCOVCOVCBKNBKNOVCBKNBKNOVCOVCOVCOVCOVC
FltCatVFRVFRVFRVFRVFRVFRVFRVFRVFRVFRVFRVFRVFR
WX--------------------------
WDir1109080809090801008090708060
WSpd9 11 12 15 16 13 11 12 11 10 9 9 10
WGst-- -- -- 21 22 -- -- -- -- -- -- -- --
Raw hourly METARs
KSTL 211551Z 11009KT 10SM SCT150 OVC210 15/M01 A3034 RMK AO2 SLP275 T01501011
KSTL 211651Z 09011KT 10SM SCT180 OVC250 16/M01 A3031 RMK AO2 SLP265 T01611006
KSTL 211751Z 08012KT 10SM SCT180 OVC250 17/M01 A3028 RMK AO2 SLP256 T01671006 10172 20061 58023
KSTL 211851Z 08015G21KT 10SM BKN180 BKN250 18/M01 A3024 RMK AO2 SLP241 T01831006
KSTL 211951Z 09016G22KT 10SM BKN160 19/M01 A3020 RMK AO2 SLP227 T01891006
KSTL 212051Z 09013KT 10SM OVC150 18/M01 A3019 RMK AO2 SLP221 T01831006 56032
KSTL 212151Z 08011KT 10SM BKN150 BKN250 18/M01 A3020 RMK AO2 SLP226 T01831006
KSTL 212251Z 10012KT 10SM SCT130 BKN180 18/00 A3020 RMK AO2 SLP228 T01830000
KSTL 212351Z 08011KT 10SM SCT130 OVC180 17/00 A3021 RMK AO2 SLP229 VIRGA S T01720000 10194 20167 51006
KSTL 220051Z 09010KT 10SM SCT140 OVC200 17/01 A3020 RMK AO2 SLP225 T01670006
KSTL 220151Z 07009KT 10SM OVC150 16/01 A3021 RMK AO2 PRESRR SLP230 T01560011
KSTL 220251Z 08009KT 10SM OVC120 16/01 A3021 RMK AO2 SLP229 T01560006 53002
KSTL 220351Z 06010KT 10SM OVC130 15/00 A3020 RMK AO2 SLP224 T01500000



Page loaded:  04:44 UTC  |   09:44 PM Pacific  |   10:44 PM Mountain  |   11:44 PM Central  |   12:44 AM Eastern

 

ADVISORIES

FORECASTS

FORECASTS

OBSERVATIONS

USER TOOLS

ABOUT US